createdAt,value
2018-08-09T00:00:22.334Z,0
2018-08-09T00:01:02.940Z,0
2018-08-09T00:01:43.459Z,0
2018-08-09T00:02:24.002Z,0
2018-08-09T00:03:04.602Z,0
2018-08-09T00:03:45.383Z,0
2018-08-09T00:04:25.880Z,0
2018-08-09T00:05:06.864Z,0
2018-08-09T00:05:47.320Z,0
2018-08-09T00:06:28.346Z,0
2018-08-09T00:07:08.865Z,0
2018-08-09T00:07:49.341Z,0
2018-08-09T00:08:29.861Z,0
2018-08-09T00:09:10.308Z,0
2018-08-09T00:09:50.830Z,0
2018-08-09T00:10:31.334Z,0
2018-08-09T00:11:11.783Z,0
2018-08-09T00:11:52.271Z,0
2018-08-09T00:12:32.808Z,0
2018-08-09T00:13:13.345Z,0
2018-08-09T00:13:53.786Z,0
2018-08-09T00:14:34.278Z,0
2018-08-09T00:15:14.751Z,0
2018-08-09T00:15:55.227Z,0
2018-08-09T00:16:35.780Z,0
2018-08-09T00:17:16.301Z,0
2018-08-09T00:17:56.826Z,0
2018-08-09T00:18:37.341Z,0
2018-08-09T00:19:17.776Z,0
2018-08-09T00:19:58.465Z,0
2018-08-09T00:20:38.988Z,0
2018-08-09T00:21:19.622Z,0
2018-08-09T00:22:00.205Z,0
2018-08-09T00:22:40.838Z,0
2018-08-09T00:23:21.344Z,0
2018-08-09T00:24:01.832Z,0
2018-08-09T00:24:42.296Z,0
2018-08-09T00:25:22.906Z,0
2018-08-09T00:26:03.404Z,0
2018-08-09T00:26:43.907Z,0
2018-08-09T00:27:24.681Z,0
2018-08-09T00:28:05.185Z,0
2018-08-09T00:28:45.703Z,0
2018-08-09T00:29:26.222Z,0
2018-08-09T00:30:06.694Z,0
2018-08-09T00:30:47.212Z,0
2018-08-09T00:31:27.708Z,0
2018-08-09T00:32:08.249Z,0
2018-08-09T00:32:48.662Z,0
2018-08-09T00:33:29.184Z,0
2018-08-09T00:34:09.682Z,0
2018-08-09T00:34:50.220Z,0
2018-08-09T00:35:31.612Z,0
2018-08-09T00:36:12.145Z,0
2018-08-09T00:36:52.622Z,0
2018-08-09T00:37:33.147Z,0
2018-08-09T00:38:13.673Z,0
2018-08-09T00:38:54.228Z,0
2018-08-09T00:39:34.697Z,0
2018-08-09T00:40:15.205Z,0
2018-08-09T00:40:55.683Z,0
2018-08-09T00:41:36.298Z,0
2018-08-09T00:42:16.833Z,0
2018-08-09T00:42:57.309Z,0
2018-08-09T00:43:37.799Z,0
2018-08-09T00:44:18.339Z,0
2018-08-09T00:44:58.935Z,0
2018-08-09T00:45:39.427Z,0
2018-08-09T00:46:20.002Z,0
2018-08-09T00:47:00.539Z,0
2018-08-09T00:47:41.093Z,0
2018-08-09T00:48:21.690Z,0
2018-08-09T00:49:02.411Z,0
2018-08-09T00:49:42.949Z,0
2018-08-09T00:50:23.507Z,0
2018-08-09T00:51:03.987Z,0
2018-08-09T00:51:44.496Z,0
2018-08-09T00:52:24.961Z,0
2018-08-09T00:53:05.481Z,0
2018-08-09T00:53:45.942Z,0
2018-08-09T00:54:26.858Z,0
2018-08-09T00:55:07.099Z,0
2018-08-09T00:55:48.378Z,0
2018-08-09T00:56:28.863Z,0
2018-08-09T00:57:09.339Z,0
2018-08-09T00:57:49.910Z,0
2018-08-09T00:58:30.359Z,0
2018-08-09T00:59:10.897Z,0
2018-08-09T00:59:51.438Z,0
2018-08-09T01:00:31.962Z,0
2018-08-09T01:01:12.495Z,0
2018-08-09T01:01:52.998Z,0
2018-08-09T01:02:33.566Z,0
2018-08-09T01:03:14.065Z,0
2018-08-09T01:03:54.750Z,0
2018-08-09T01:04:35.176Z,0
2018-08-09T01:05:15.754Z,0
2018-08-09T01:05:56.277Z,0
2018-08-09T01:06:36.813Z,0
2018-08-09T01:07:17.312Z,0
2018-08-09T01:09:56.384Z,0
2018-08-09T01:10:36.992Z,0
2018-08-09T01:11:17.511Z,0
2018-08-09T01:11:58.075Z,0
2018-08-09T01:12:39.227Z,0
2018-08-09T01:13:19.699Z,0
2018-08-09T01:14:00.339Z,0
2018-08-09T01:14:40.860Z,0
2018-08-09T01:15:21.346Z,0
2018-08-09T01:16:01.860Z,0
2018-08-09T01:16:42.461Z,0
2018-08-09T01:17:23.442Z,0
2018-08-09T01:18:04.177Z,0
2018-08-09T01:18:44.687Z,0
2018-08-09T01:19:25.337Z,0
2018-08-09T01:20:06.021Z,0
2018-08-09T01:20:46.480Z,0
2018-08-09T01:21:26.981Z,0
2018-08-09T01:22:07.466Z,0
2018-08-09T01:22:48.188Z,0
2018-08-09T01:23:28.674Z,0
2018-08-09T01:24:09.145Z,0
2018-08-09T01:24:49.781Z,0
2018-08-09T01:25:30.308Z,0
2018-08-09T01:26:10.782Z,0
2018-08-09T01:26:51.261Z,0
2018-08-09T01:27:31.899Z,0
2018-08-09T01:28:12.246Z,0
2018-08-09T01:28:52.905Z,0
2018-08-09T01:29:33.497Z,0
2018-08-09T01:30:13.987Z,0
2018-08-09T01:30:54.751Z,0
2018-08-09T01:31:35.245Z,0
2018-08-09T01:32:15.659Z,0
2018-08-09T01:32:56.394Z,0
2018-08-09T01:33:36.738Z,0
2018-08-09T01:34:17.338Z,0
2018-08-09T01:34:57.921Z,0
2018-08-09T01:35:38.367Z,0
2018-08-09T01:36:18.893Z,0
2018-08-09T01:36:59.392Z,0
2018-08-09T01:37:39.856Z,0
2018-08-09T01:38:20.373Z,0
2018-08-09T01:39:00.948Z,0
2018-08-09T01:39:41.656Z,0
2018-08-09T01:40:22.155Z,0
2018-08-09T01:41:02.648Z,0
2018-08-09T01:41:43.119Z,0
2018-08-09T01:42:23.552Z,0
2018-08-09T01:43:04.249Z,0
2018-08-09T01:43:44.758Z,0
2018-08-09T01:44:25.304Z,0
2018-08-09T01:45:05.812Z,0
2018-08-09T01:45:46.313Z,0
2018-08-09T01:46:26.764Z,0
2018-08-09T01:47:07.291Z,0
2018-08-09T01:47:47.741Z,0
2018-08-09T01:48:28.221Z,0
2018-08-09T01:49:08.701Z,0
2018-08-09T01:49:49.189Z,0
2018-08-09T01:50:29.697Z,0
2018-08-09T01:51:10.289Z,0
2018-08-09T01:51:50.756Z,0
2018-08-09T01:52:31.282Z,0
2018-08-09T01:53:11.760Z,0
2018-08-09T01:53:52.219Z,0
2018-08-09T01:54:32.760Z,0
2018-08-09T01:55:13.214Z,0
2018-08-09T01:55:53.686Z,0
2018-08-09T01:56:34.201Z,0
2018-08-09T01:57:14.723Z,0
2018-08-09T01:57:55.209Z,0
2018-08-09T01:58:35.840Z,0
2018-08-09T01:59:16.297Z,0
2018-08-09T01:59:56.929Z,0
2018-08-09T02:00:37.401Z,0
2018-08-09T02:01:17.941Z,0
2018-08-09T02:01:58.432Z,0
2018-08-09T02:02:39.057Z,0
2018-08-09T02:03:19.507Z,0
2018-08-09T02:04:00.053Z,0
2018-08-09T02:04:40.551Z,0
2018-08-09T02:05:21.045Z,0
2018-08-09T02:06:01.595Z,0
2018-08-09T02:06:42.056Z,0
2018-08-09T02:07:22.618Z,0
2018-08-09T02:08:03.152Z,0
2018-08-09T02:08:43.796Z,0
2018-08-09T02:09:24.273Z,0
2018-08-09T02:10:04.768Z,0
2018-08-09T02:10:45.217Z,0
2018-08-09T02:11:25.761Z,0
2018-08-09T02:12:06.275Z,0
2018-08-09T02:12:46.818Z,0
2018-08-09T02:13:27.375Z,0
2018-08-09T02:14:07.907Z,0
2018-08-09T02:14:48.373Z,0
2018-08-09T02:15:28.914Z,0
2018-08-09T02:16:09.369Z,0
2018-08-09T02:16:49.911Z,0
2018-08-09T02:17:30.363Z,0
2018-08-09T02:18:10.875Z,0
2018-08-09T02:18:51.334Z,0
2018-08-09T02:19:31.821Z,0
2018-08-09T02:20:12.322Z,0
2018-08-09T02:20:52.838Z,0
2018-08-09T02:21:33.428Z,0
2018-08-09T02:22:13.894Z,0
2018-08-09T02:22:54.377Z,0
2018-08-09T02:23:34.904Z,0
2018-08-09T02:24:15.332Z,0
2018-08-09T02:24:55.847Z,0
2018-08-09T02:25:36.261Z,0
2018-08-09T02:26:16.799Z,0
2018-08-09T02:26:57.296Z,0
2018-08-09T02:27:37.806Z,0
2018-08-09T02:28:18.335Z,0
2018-08-09T02:28:58.888Z,0
2018-08-09T02:29:39.400Z,0
2018-08-09T02:30:19.880Z,0
2018-08-09T02:31:00.472Z,0
2018-08-09T02:31:40.951Z,0
2018-08-09T02:32:21.434Z,0
2018-08-09T02:33:01.943Z,0
2018-08-09T02:33:42.436Z,0
2018-08-09T02:34:22.947Z,0
2018-08-09T02:35:03.401Z,0
2018-08-09T02:35:43.903Z,0
2018-08-09T02:36:24.388Z,0
2018-08-09T02:37:04.950Z,0
2018-08-09T02:37:45.538Z,0
2018-08-09T02:38:26.002Z,0
2018-08-09T02:39:06.567Z,0
2018-08-09T02:39:47.086Z,0
2018-08-09T02:40:27.631Z,0
2018-08-09T02:41:08.211Z,0
2018-08-09T02:41:48.638Z,0
2018-08-09T02:42:29.435Z,0
2018-08-09T02:43:09.937Z,0
2018-08-09T02:43:50.392Z,0
2018-08-09T02:44:30.881Z,0
2018-08-09T02:45:11.348Z,0
2018-08-09T02:45:51.805Z,0
2018-08-09T02:46:32.388Z,0
2018-08-09T02:47:12.747Z,0
2018-08-09T02:47:53.255Z,0
2018-08-09T02:48:33.983Z,0
2018-08-09T02:49:14.559Z,0
2018-08-09T02:49:55.080Z,0
2018-08-09T02:50:35.557Z,0
2018-08-09T02:51:16.102Z,0
2018-08-09T02:51:56.610Z,0
2018-08-09T02:52:37.147Z,0
2018-08-09T02:53:17.631Z,0
2018-08-09T02:53:58.139Z,0
2018-08-09T02:54:38.643Z,0
2018-08-09T02:55:19.179Z,0
2018-08-09T02:55:59.646Z,0
2018-08-09T02:56:40.140Z,0
2018-08-09T02:57:20.593Z,0
2018-08-09T02:58:01.178Z,0
2018-08-09T02:58:41.750Z,0
2018-08-09T02:59:22.349Z,0
2018-08-09T03:00:02.897Z,0
2018-08-09T03:00:43.489Z,0
2018-08-09T03:01:23.995Z,0
2018-08-09T03:02:04.474Z,0
2018-08-09T03:02:45.097Z,0
2018-08-09T03:03:25.590Z,0
2018-08-09T03:04:06.145Z,0
2018-08-09T03:04:46.642Z,0
2018-08-09T03:05:27.149Z,0
2018-08-09T03:06:07.637Z,0
2018-08-09T03:06:48.197Z,0
2018-08-09T03:07:28.654Z,0
2018-08-09T03:08:09.196Z,0
2018-08-09T03:08:49.686Z,0
2018-08-09T03:09:30.187Z,0
2018-08-09T03:10:10.690Z,0
2018-08-09T03:10:51.402Z,0
2018-08-09T03:11:31.944Z,0
2018-08-09T03:12:12.439Z,0
2018-08-09T03:12:53.310Z,0
2018-08-09T03:13:33.868Z,0
2018-08-09T03:14:14.292Z,0
2018-08-09T03:14:54.811Z,0
2018-08-09T03:15:35.332Z,0
2018-08-09T03:16:16.099Z,0
2018-08-09T03:16:56.660Z,0
2018-08-09T03:17:37.122Z,0
2018-08-09T03:18:17.663Z,0
2018-08-09T03:18:58.139Z,0
2018-08-09T03:19:38.610Z,0
2018-08-09T03:20:19.203Z,0
2018-08-09T03:20:59.648Z,0
2018-08-09T03:21:40.315Z,0
2018-08-09T03:22:21.050Z,0
2018-08-09T03:23:02.088Z,0
2018-08-09T03:23:43.263Z,0
2018-08-09T03:24:23.965Z,0
2018-08-09T03:25:04.440Z,0
2018-08-09T03:25:44.940Z,0
2018-08-09T03:26:25.461Z,0
2018-08-09T03:27:06.116Z,0
2018-08-09T03:27:46.637Z,0
2018-08-09T03:28:27.167Z,0
2018-08-09T03:29:07.610Z,0
2018-08-09T03:29:48.213Z,0
2018-08-09T03:30:28.842Z,0
2018-08-09T03:31:09.317Z,0
2018-08-09T03:31:49.817Z,0
2018-08-09T03:32:30.318Z,0
2018-08-09T03:33:10.793Z,0
2018-08-09T03:33:51.308Z,0
2018-08-09T03:34:31.772Z,0
2018-08-09T03:35:12.353Z,0
2018-08-09T03:35:52.851Z,0
2018-08-09T03:36:33.415Z,0
2018-08-09T03:37:13.938Z,0
2018-08-09T03:37:54.351Z,0
2018-08-09T03:38:34.890Z,0
2018-08-09T03:39:15.463Z,0
2018-08-09T03:39:55.916Z,0
2018-08-09T03:40:36.359Z,0
2018-08-09T03:41:16.811Z,0
2018-08-09T03:41:57.377Z,0
2018-08-09T03:42:37.887Z,0
2018-08-09T03:43:18.439Z,0
2018-08-09T03:43:58.982Z,0
2018-08-09T03:44:39.568Z,0
2018-08-09T03:45:20.257Z,0
2018-08-09T03:46:01.682Z,0
2018-08-09T03:46:42.242Z,0
2018-08-09T03:47:22.771Z,0
2018-08-09T03:48:03.254Z,0
2018-08-09T03:48:43.795Z,0
2018-08-09T03:49:24.284Z,0
2018-08-09T03:50:04.865Z,0
2018-08-09T03:50:45.295Z,0
2018-08-09T03:51:25.867Z,0
2018-08-09T03:52:06.343Z,0
2018-08-09T03:52:48.815Z,0
2018-08-09T03:53:29.362Z,0
2018-08-09T03:54:10.456Z,0
2018-08-09T03:54:51.009Z,0
2018-08-09T03:55:31.454Z,0
2018-08-09T03:56:11.986Z,0
2018-08-09T03:56:55.262Z,0
2018-08-09T03:57:35.917Z,0
2018-08-09T03:58:16.477Z,0
2018-08-09T03:58:56.870Z,0
2018-08-09T03:59:37.497Z,0
2018-08-09T04:00:17.920Z,0
2018-08-09T04:00:58.421Z,0
2018-08-09T04:01:38.902Z,0
2018-08-09T04:02:19.399Z,0
2018-08-09T04:02:59.859Z,0
2018-08-09T04:03:40.517Z,0
2018-08-09T04:04:21.165Z,0
2018-08-09T04:05:01.660Z,0
2018-08-09T04:05:43.135Z,0
2018-08-09T04:06:23.707Z,0
2018-08-09T04:07:04.313Z,0
2018-08-09T04:07:44.948Z,0
2018-08-09T04:08:25.345Z,0
2018-08-09T04:09:05.887Z,0
2018-08-09T04:09:46.496Z,0
2018-08-09T04:10:27.042Z,0
2018-08-09T04:11:07.550Z,0
2018-08-09T04:11:48.111Z,0
2018-08-09T04:12:28.605Z,0
2018-08-09T04:13:09.140Z,0
2018-08-09T04:13:49.719Z,0
2018-08-09T04:14:30.170Z,0
2018-08-09T04:15:10.691Z,0
2018-08-09T04:15:51.215Z,0
2018-08-09T04:16:31.692Z,0
2018-08-09T04:17:12.190Z,0
2018-08-09T04:17:52.781Z,0
2018-08-09T04:18:33.235Z,0
2018-08-09T04:19:13.811Z,0
2018-08-09T04:19:54.327Z,0
2018-08-09T04:20:34.836Z,0
2018-08-09T04:21:15.365Z,0
2018-08-09T04:21:55.879Z,0
2018-08-09T04:22:36.296Z,0
2018-08-09T04:23:16.819Z,0
2018-08-09T04:23:57.296Z,0
2018-08-09T04:24:37.782Z,0
2018-08-09T04:25:18.297Z,0
2018-08-09T04:25:58.781Z,0
2018-08-09T04:26:39.261Z,0
2018-08-09T04:27:19.812Z,0
2018-08-09T04:28:00.292Z,0
2018-08-09T04:28:40.781Z,0
2018-08-09T04:29:21.309Z,0
2018-08-09T04:30:01.774Z,0
2018-08-09T04:30:42.613Z,0
2018-08-09T04:31:23.082Z,0
2018-08-09T04:32:03.614Z,0
2018-08-09T04:32:44.175Z,0
2018-08-09T04:33:24.592Z,0
2018-08-09T04:34:05.089Z,0
2018-08-09T04:34:45.582Z,0
2018-08-09T04:35:26.091Z,0
2018-08-09T04:36:06.563Z,0
2018-08-09T04:36:47.079Z,0
2018-08-09T04:37:27.627Z,0
2018-08-09T04:38:08.180Z,0
2018-08-09T04:38:48.636Z,0
2018-08-09T04:39:29.093Z,0
2018-08-09T04:40:09.628Z,0
2018-08-09T04:40:50.109Z,0
2018-08-09T04:41:30.675Z,0
2018-08-09T04:42:11.168Z,0
2018-08-09T04:42:51.733Z,0
2018-08-09T04:43:32.265Z,0
2018-08-09T04:44:12.841Z,0
2018-08-09T04:44:53.372Z,0
2018-08-09T04:45:33.955Z,0
2018-08-09T04:46:14.473Z,0
2018-08-09T04:46:54.926Z,0
2018-08-09T04:47:35.405Z,0
2018-08-09T04:48:15.917Z,0
2018-08-09T04:48:56.370Z,0
2018-08-09T04:49:36.938Z,0
2018-08-09T04:50:17.487Z,0
2018-08-09T04:50:57.928Z,0
2018-08-09T04:51:38.473Z,0
2018-08-09T04:52:19.077Z,0
2018-08-09T04:52:59.770Z,0
2018-08-09T04:53:40.321Z,0
2018-08-09T04:54:20.832Z,0
2018-08-09T04:55:01.272Z,0
2018-08-09T04:55:41.799Z,0
2018-08-09T04:56:22.675Z,5
2018-08-09T04:57:03.138Z,5
2018-08-09T04:57:43.663Z,5
2018-08-09T04:58:24.255Z,5
2018-08-09T04:59:04.972Z,5
2018-08-09T04:59:45.442Z,5
2018-08-09T05:00:26.043Z,5
2018-08-09T05:01:06.656Z,5
2018-08-09T05:01:47.229Z,5
2018-08-09T05:02:28.535Z,5
2018-08-09T05:03:09.071Z,5
2018-08-09T05:03:49.788Z,5
2018-08-09T05:04:30.874Z,5
2018-08-09T05:05:11.403Z,5
2018-08-09T05:05:51.901Z,5
2018-08-09T05:06:32.453Z,5
2018-08-09T05:07:12.942Z,5
2018-08-09T05:07:54.254Z,5
2018-08-09T05:08:34.920Z,5
2018-08-09T05:09:15.462Z,5
2018-08-09T05:09:55.924Z,5
2018-08-09T05:10:36.487Z,5
2018-08-09T05:11:17.503Z,5
2018-08-09T05:11:57.651Z,5
2018-08-09T05:12:37.966Z,5
2018-08-09T05:13:18.599Z,5
2018-08-09T05:13:59.529Z,5
2018-08-09T05:14:40.038Z,5
2018-08-09T05:15:20.555Z,5
2018-08-09T05:16:01.038Z,5
2018-08-09T05:16:41.646Z,5
2018-08-09T05:17:22.161Z,5
2018-08-09T05:18:02.655Z,5
2018-08-09T05:18:43.475Z,5
2018-08-09T05:19:24.114Z,5
2018-08-09T05:20:06.320Z,5
2018-08-09T05:20:46.898Z,5
2018-08-09T05:21:27.520Z,5
2018-08-09T05:22:08.030Z,5
2018-08-09T05:22:48.478Z,5
2018-08-09T05:23:29.020Z,5
2018-08-09T05:24:09.488Z,5
2018-08-09T05:24:50.039Z,5
2018-08-09T05:25:30.841Z,5
2018-08-09T05:26:11.268Z,10
2018-08-09T05:26:51.735Z,10
2018-08-09T05:27:32.204Z,10
2018-08-09T05:28:12.690Z,10
2018-08-09T05:28:53.288Z,10
2018-08-09T05:29:33.959Z,10
2018-08-09T05:30:14.433Z,10
2018-08-09T05:30:54.929Z,10
2018-08-09T05:31:45.109Z,10
2018-08-09T05:32:25.603Z,10
2018-08-09T05:33:06.108Z,10
2018-08-09T05:33:46.608Z,10
2018-08-09T05:34:27.357Z,10
2018-08-09T05:35:07.871Z,10
2018-08-09T05:35:48.326Z,10
2018-08-09T05:36:28.803Z,10
2018-08-09T05:37:09.371Z,10
2018-08-09T05:37:49.953Z,10
2018-08-09T05:38:30.551Z,10
2018-08-09T05:39:11.080Z,10
2018-08-09T05:39:51.642Z,10
2018-08-09T05:40:32.080Z,10
2018-08-09T05:41:12.580Z,10
2018-08-09T05:41:53.061Z,10
2018-08-09T05:42:33.612Z,10
2018-08-09T05:43:14.146Z,10
2018-08-09T05:45:27.362Z,10
2018-08-09T05:46:08.017Z,10
2018-08-09T05:46:48.591Z,10
2018-08-09T05:47:29.058Z,10
2018-08-09T05:48:09.685Z,10
2018-08-09T05:48:50.139Z,15
2018-08-09T05:49:30.695Z,10
2018-08-09T05:50:11.352Z,15
2018-08-09T05:50:52.105Z,10
2018-08-09T05:51:32.914Z,10
2018-08-09T05:52:13.454Z,25
2018-08-09T05:52:53.997Z,10
2018-08-09T05:53:34.529Z,15
2018-08-09T05:54:15.225Z,10
2018-08-09T05:54:55.874Z,10
2018-08-09T05:55:36.365Z,10
2018-08-09T05:56:16.870Z,15
2018-08-09T05:56:58.101Z,15
2018-08-09T05:57:38.984Z,15
2018-08-09T05:58:19.491Z,15
2018-08-09T05:59:00.259Z,15
2018-08-09T05:59:41.313Z,20
2018-08-09T06:00:21.698Z,20
2018-08-09T06:02:35.083Z,20
2018-08-09T06:03:15.819Z,25
2018-08-09T06:03:56.568Z,30
2018-08-09T06:04:37.309Z,30
2018-08-09T06:05:17.909Z,30
2018-08-09T06:05:58.344Z,30
2018-08-09T06:08:41.002Z,40
2018-08-09T06:09:21.570Z,40
2018-08-09T06:10:02.389Z,45
2018-08-09T06:10:42.937Z,45
2018-08-09T06:11:24.777Z,45
2018-08-09T06:12:06.482Z,45
2018-08-09T06:12:47.509Z,40
2018-08-09T06:13:32.049Z,25
2018-08-09T06:14:12.110Z,20
2018-08-09T06:14:52.620Z,20
2018-08-09T06:15:33.182Z,25
2018-08-09T06:16:13.684Z,20
2018-08-09T06:16:54.225Z,20
2018-08-09T06:17:34.729Z,20
2018-08-09T06:18:15.208Z,15
2018-08-09T06:18:55.737Z,15
2018-08-09T06:19:36.218Z,15
2018-08-09T06:20:16.827Z,15
2018-08-09T06:20:57.406Z,15
2018-08-09T06:21:37.936Z,15
2018-08-09T06:22:18.593Z,15
2018-08-09T06:22:59.035Z,15
2018-08-09T06:23:39.791Z,15
2018-08-09T06:24:20.398Z,25
2018-08-09T06:25:01.004Z,25
2018-08-09T06:25:41.472Z,25
2018-08-09T06:26:22.010Z,25
2018-08-09T06:27:02.475Z,25
2018-08-09T06:27:42.979Z,25
2018-08-09T06:28:23.512Z,25
2018-08-09T06:29:03.994Z,25
2018-08-09T06:29:44.475Z,20
2018-08-09T06:30:25.165Z,20
2018-08-09T06:31:05.825Z,20
2018-08-09T06:31:46.347Z,15
2018-08-09T06:32:26.853Z,15
2018-08-09T06:33:07.271Z,15
2018-08-09T06:33:47.855Z,15
2018-08-09T06:34:28.340Z,15
2018-08-09T06:35:09.623Z,15
2018-08-09T06:35:50.159Z,15
2018-08-09T06:38:29.475Z,20
2018-08-09T06:39:10.000Z,25
2018-08-09T06:39:50.541Z,25
2018-08-09T06:40:30.999Z,20
2018-08-09T06:41:11.524Z,20
2018-08-09T06:41:51.948Z,20
2018-08-09T06:42:32.416Z,25
2018-08-09T06:43:12.993Z,25
2018-08-09T06:43:53.706Z,25
2018-08-09T06:44:34.134Z,30
2018-08-09T06:45:14.614Z,30
2018-08-09T06:45:55.120Z,30
2018-08-09T06:46:35.620Z,35
2018-08-09T06:47:16.166Z,35
2018-08-09T06:47:57.049Z,35
2018-08-09T06:48:37.309Z,40
2018-08-09T06:49:17.911Z,45
2018-08-09T06:49:58.387Z,45
2018-08-09T06:50:38.971Z,50
2018-08-09T06:51:19.498Z,55
2018-08-09T06:51:59.999Z,50
2018-08-09T06:52:40.641Z,55
2018-08-09T06:53:21.086Z,55
2018-08-09T06:54:01.561Z,45
2018-08-09T06:54:42.051Z,30
2018-08-09T06:55:23.225Z,30
2018-08-09T06:56:03.692Z,30
2018-08-09T06:56:44.173Z,30
2018-08-09T06:57:24.800Z,25
2018-08-09T06:58:05.347Z,25
2018-08-09T06:58:45.806Z,25
2018-08-09T06:59:26.383Z,25
2018-08-09T07:00:06.903Z,25
2018-08-09T07:00:47.392Z,25
2018-08-09T07:01:27.986Z,25
2018-08-09T07:02:08.833Z,25
2018-08-09T07:02:49.423Z,25
2018-08-09T07:03:29.890Z,25
2018-08-09T07:04:10.390Z,30
2018-08-09T07:04:50.899Z,40
2018-08-09T07:05:31.426Z,35
2018-08-09T07:06:11.973Z,40
2018-08-09T07:06:52.450Z,55
2018-08-09T07:07:33.099Z,60
2018-08-09T07:08:13.552Z,60
2018-08-09T07:08:54.078Z,60
2018-08-09T07:09:34.580Z,60
2018-08-09T07:10:15.062Z,60
2018-08-09T07:10:56.725Z,60
2018-08-09T07:11:37.239Z,60
2018-08-09T07:12:17.769Z,55
2018-08-09T07:12:58.202Z,55
2018-08-09T07:13:38.712Z,55
2018-08-09T07:14:19.179Z,55
2018-08-09T07:14:59.787Z,55
2018-08-09T07:15:40.290Z,55
2018-08-09T07:16:20.753Z,60
2018-08-09T07:17:01.322Z,60
2018-08-09T07:17:41.828Z,60
2018-08-09T07:18:22.318Z,60
2018-08-09T07:19:02.834Z,60
2018-08-09T07:19:43.402Z,60
2018-08-09T07:20:24.664Z,60
2018-08-09T07:21:05.241Z,60
2018-08-09T07:21:45.693Z,60
2018-08-09T07:22:26.278Z,60
2018-08-09T07:23:06.684Z,55
2018-08-09T07:23:47.167Z,55
2018-08-09T07:24:27.707Z,55
2018-08-09T07:25:08.241Z,55
2018-08-09T07:25:48.700Z,55
2018-08-09T07:26:29.368Z,55
2018-08-09T07:27:10.031Z,55
2018-08-09T07:27:50.557Z,55
2018-08-09T07:28:31.189Z,55
2018-08-09T07:29:11.623Z,55
2018-08-09T07:29:52.121Z,55
2018-08-09T07:30:32.629Z,55
2018-08-09T07:31:13.179Z,55
2018-08-09T07:31:53.668Z,55
2018-08-09T07:32:34.176Z,55
2018-08-09T07:33:14.786Z,55
2018-08-09T07:33:55.329Z,55
2018-08-09T07:34:35.727Z,55
2018-08-09T07:35:16.268Z,55
2018-08-09T07:35:56.771Z,55
2018-08-09T07:36:37.338Z,55
2018-08-09T07:37:17.764Z,55
2018-08-09T07:37:58.272Z,55
2018-08-09T07:38:38.778Z,55
2018-08-09T07:39:19.360Z,55
2018-08-09T07:39:59.766Z,55
2018-08-09T07:40:40.268Z,55
2018-08-09T07:41:21.442Z,55
2018-08-09T07:42:01.980Z,55
2018-08-09T07:42:42.484Z,50
2018-08-09T07:43:23.057Z,55
2018-08-09T07:44:03.481Z,55
2018-08-09T07:44:44.096Z,55
2018-08-09T07:45:24.613Z,55
2018-08-09T07:46:05.167Z,55
2018-08-09T07:46:45.695Z,55
2018-08-09T07:47:26.195Z,55
2018-08-09T07:48:07.437Z,55
2018-08-09T07:48:47.960Z,50
2018-08-09T07:49:28.455Z,50
2018-08-09T07:50:08.929Z,50
2018-08-09T07:50:49.443Z,50
2018-08-09T07:51:30.040Z,50
2018-08-09T07:52:10.668Z,50
2018-08-09T07:52:51.295Z,50
2018-08-09T07:53:32.003Z,50
2018-08-09T07:54:13.024Z,50
2018-08-09T07:54:53.512Z,50
2018-08-09T07:55:34.119Z,50
2018-08-09T07:56:14.721Z,50
2018-08-09T07:56:55.337Z,45
2018-08-09T07:57:35.721Z,50
2018-08-09T07:58:16.249Z,45
2018-08-09T07:58:56.931Z,45
2018-08-09T07:59:37.509Z,45
2018-08-09T08:00:18.033Z,45
2018-08-09T08:00:58.571Z,45
2018-08-09T08:01:39.133Z,45
2018-08-09T08:02:19.681Z,45
2018-08-09T08:03:00.129Z,45
2018-08-09T08:03:40.639Z,45
2018-08-09T08:04:21.094Z,45
2018-08-09T08:05:01.728Z,45
2018-08-09T08:05:42.218Z,45
2018-08-09T08:06:22.715Z,40
2018-08-09T08:07:03.892Z,40
2018-08-09T08:07:44.568Z,40
2018-08-09T08:08:25.297Z,40
2018-08-09T08:09:05.978Z,40
2018-08-09T08:09:46.407Z,40
2018-08-09T08:10:27.008Z,40
2018-08-09T08:11:07.478Z,35
2018-08-09T08:11:48.472Z,35
2018-08-09T08:12:29.753Z,35
2018-08-09T08:13:10.285Z,35
2018-08-09T08:13:50.799Z,35
2018-08-09T08:14:31.330Z,35
2018-08-09T08:15:11.840Z,35
2018-08-09T08:15:52.450Z,30
2018-08-09T08:16:32.964Z,30
2018-08-09T08:17:13.465Z,30
2018-08-09T08:17:54.011Z,30
2018-08-09T08:18:34.535Z,30
2018-08-09T08:19:15.191Z,30
2018-08-09T08:19:55.849Z,30
2018-08-09T08:20:36.263Z,30
2018-08-09T08:21:16.744Z,30
2018-08-09T08:21:57.468Z,30
2018-08-09T08:22:37.900Z,30
2018-08-09T08:23:18.460Z,30
2018-08-09T08:23:59.015Z,30
2018-08-09T08:24:40.262Z,30
2018-08-09T08:25:20.847Z,25
2018-08-09T08:26:01.499Z,25
2018-08-09T08:26:42.117Z,25
2018-08-09T08:27:22.551Z,25
2018-08-09T08:28:03.047Z,25
2018-08-09T08:28:43.523Z,25
2018-08-09T08:29:24.031Z,25
2018-08-09T08:30:04.548Z,25
2018-08-09T08:30:45.019Z,25
2018-08-09T08:31:25.568Z,25
2018-08-09T08:32:06.137Z,25
2018-08-09T08:32:46.661Z,25
2018-08-09T08:33:27.398Z,25
2018-08-09T08:34:07.716Z,25
2018-08-09T08:34:48.195Z,25
2018-08-09T08:35:28.677Z,25
2018-08-09T08:36:09.485Z,25
2018-08-09T08:36:50.126Z,25
2018-08-09T08:37:31.635Z,25
2018-08-09T08:38:12.208Z,25
2018-08-09T08:38:52.691Z,25
2018-08-09T08:39:33.229Z,25
2018-08-09T08:40:13.791Z,25
2018-08-09T08:40:55.309Z,25
2018-08-09T08:41:35.898Z,25
2018-08-09T08:42:16.330Z,25
2018-08-09T08:42:56.893Z,25
2018-08-09T08:43:37.467Z,25
2018-08-09T08:44:17.996Z,25
2018-08-09T08:44:58.575Z,25
2018-08-09T08:45:39.063Z,25
2018-08-09T08:46:19.581Z,25
2018-08-09T08:47:00.021Z,25
2018-08-09T08:47:40.645Z,25
2018-08-09T08:48:21.079Z,25
2018-08-09T08:49:01.822Z,25
2018-08-09T08:49:42.369Z,25
2018-08-09T08:50:22.864Z,25
2018-08-09T08:51:03.621Z,25
2018-08-09T08:51:44.065Z,25
2018-08-09T08:52:24.689Z,25
2018-08-09T08:53:05.274Z,20
2018-08-09T08:53:45.685Z,20
2018-08-09T08:54:26.272Z,20
2018-08-09T08:55:06.952Z,20
2018-08-09T08:55:47.457Z,20
2018-08-09T08:56:27.940Z,20
2018-08-09T08:57:08.838Z,20
2018-08-09T08:57:51.283Z,20
2018-08-09T08:58:32.862Z,20
2018-08-09T08:59:13.571Z,20
2018-08-09T08:59:54.105Z,20
2018-08-09T09:00:34.712Z,20
2018-08-09T09:01:15.285Z,20
2018-08-09T09:01:55.782Z,20
2018-08-09T09:02:36.513Z,20
2018-08-09T09:03:16.990Z,20
2018-08-09T09:03:57.530Z,20
2018-08-09T09:04:38.180Z,20
2018-08-09T09:05:18.626Z,20
2018-08-09T09:05:59.289Z,20
2018-08-09T09:06:39.895Z,20
2018-08-09T09:07:20.311Z,20
2018-08-09T09:08:00.859Z,20
2018-08-09T09:08:42.560Z,20
2018-08-09T09:09:23.066Z,20
2018-08-09T09:10:03.501Z,20
2018-08-09T09:10:44.053Z,20
2018-08-09T09:11:24.740Z,20
2018-08-09T09:12:05.829Z,20
2018-08-09T09:12:47.400Z,20
2018-08-09T09:13:28.315Z,20
2018-08-09T09:14:08.844Z,20
2018-08-09T09:14:49.362Z,20
2018-08-09T09:15:30.157Z,20
2018-08-09T09:16:11.147Z,20
2018-08-09T09:16:51.856Z,20
2018-08-09T09:17:32.487Z,20
2018-08-09T09:18:13.081Z,20
2018-08-09T09:18:53.834Z,20
2018-08-09T09:19:34.349Z,20
2018-08-09T09:20:15.202Z,20
2018-08-09T09:20:55.859Z,20
2018-08-09T09:21:36.616Z,20
2018-08-09T09:22:17.165Z,20
2018-08-09T09:22:57.798Z,20
2018-08-09T09:23:38.306Z,20
2018-08-09T09:24:18.852Z,20
2018-08-09T09:24:59.357Z,20
2018-08-09T09:25:39.811Z,20
2018-08-09T09:26:21.281Z,20
2018-08-09T09:27:01.938Z,20
2018-08-09T09:27:42.392Z,20
2018-08-09T09:28:22.998Z,20
2018-08-09T09:29:03.529Z,20
2018-08-09T09:29:44.143Z,20
2018-08-09T09:30:24.826Z,20
2018-08-09T09:31:05.375Z,20
2018-08-09T09:31:45.753Z,20
2018-08-09T09:32:26.547Z,20
2018-08-09T09:33:07.090Z,20
2018-08-09T09:33:47.741Z,20
2018-08-09T09:34:28.306Z,20
2018-08-09T09:35:08.952Z,20
2018-08-09T09:35:49.329Z,20
2018-08-09T09:36:29.860Z,20
2018-08-09T09:37:10.355Z,20
2018-08-09T09:37:51.005Z,20
2018-08-09T09:38:31.823Z,20
2018-08-09T09:39:12.324Z,20
2018-08-09T09:39:52.845Z,20
2018-08-09T09:40:33.403Z,20
2018-08-09T09:41:13.875Z,20
2018-08-09T09:41:54.764Z,20
2018-08-09T09:42:35.339Z,20
2018-08-09T09:43:15.771Z,20
2018-08-09T09:43:56.274Z,20
2018-08-09T09:44:36.822Z,20
2018-08-09T09:45:17.274Z,20
2018-08-09T09:45:58.123Z,20
2018-08-09T09:46:38.634Z,20
2018-08-09T09:47:19.277Z,20
2018-08-09T09:47:59.911Z,20
2018-08-09T09:48:40.429Z,20
2018-08-09T09:49:20.920Z,20
2018-08-09T09:50:01.557Z,20
2018-08-09T09:50:42.021Z,20
2018-08-09T09:51:23.108Z,20
2018-08-09T09:52:03.693Z,20
2018-08-09T09:52:44.168Z,20
2018-08-09T09:53:24.637Z,20
2018-08-09T09:54:05.169Z,20
2018-08-09T09:54:45.715Z,20
2018-08-09T09:55:26.252Z,20
2018-08-09T09:56:07.040Z,20
2018-08-09T09:56:47.543Z,20
2018-08-09T09:57:28.091Z,20
2018-08-09T09:58:08.567Z,20
2018-08-09T09:58:49.100Z,20
2018-08-09T09:59:29.646Z,20